Time;durP1;ratioP1;P1;durP2;ratioP2;P2;SDS_P1;SDS_P2;PMS_P1;PMS_P2;Temp;Humidity;BMP_temperature;BMP_pressure;BME280_temperature;BME280_humidity;BME280_pressure;Samples;Min_cycle;Max_cycle;Signal;HPM_P1;HPM_P2
2022/05/07 00:02:17;;;;;;;29.23;21.08;;;;;;;;;;5073598;28;20094;-78
2022/05/07 00:04:44;;;;;;;29.88;20.23;;;;;;;;;;5073931;28;20083;-77
2022/05/07 00:07:11;;;;;;;30.77;21.05;;;;;;;;;;5076756;28;20485;-79
2022/05/07 00:09:38;;;;;;;27.25;20.73;;;;;;;;;;5077621;28;20048;-78
2022/05/07 00:12:06;;;;;;;31.45;20.77;;;;;;;;;;5077079;28;20106;-79
2022/05/07 00:14:33;;;;;;;28.77;20.83;;;;;;;;;;5076204;28;20055;-78
2022/05/07 00:19:47;;;;;;;29.05;20.55;;;;;;;;;;5077217;28;20059;-78
2022/05/07 00:22:14;;;;;;;28.50;20.23;;;;;;;;;;5076846;28;20135;-78
2022/05/07 00:24:40;;;;;;;31.38;21.50;;;;;;;;;;5076295;28;20049;-78
2022/05/07 00:27:07;;;;;;;26.17;19.38;;;;;;;;;;5076403;28;20470;-79
2022/05/07 00:29:35;;;;;;;31.15;20.73;;;;;;;;;;5076317;28;20528;-78
2022/05/07 00:32:03;;;;;;;28.10;20.67;;;;;;;;;;5076552;28;20060;-78
2022/05/07 00:34:30;;;;;;;28.45;20.40;;;;;;;;;;5076861;28;20098;-79
2022/05/07 00:36:57;;;;;;;29.27;21.50;;;;;;;;;;5075782;28;20147;-79
2022/05/07 00:39:25;;;;;;;30.48;21.83;;;;;;;;;;5075993;28;20106;-78
2022/05/07 00:41:52;;;;;;;27.00;19.73;;;;;;;;;;5076232;28;20068;-79
2022/05/07 00:44:20;;;;;;;28.60;21.20;;;;;;;;;;5076644;28;20122;-79
2022/05/07 00:46:49;;;;;;;30.85;20.73;;;;;;;;;;5064064;28;20514;-79
2022/05/07 00:49:19;;;;;;;31.33;21.83;;;;;;;;;;5055714;28;20048;-78
2022/05/07 00:51:45;;;;;;;29.35;20.77;;;;;;;;;;5055890;28;20135;-78
2022/05/07 00:54:12;;;;;;;29.38;21.35;;;;;;;;;;5055954;28;20051;-79
2022/05/07 00:56:39;;;;;;;26.75;20.52;;;;;;;;;;5055132;28;20044;-78
2022/05/07 00:59:06;;;;;;;30.13;21.23;;;;;;;;;;5056595;28;20090;-79
2022/05/07 01:01:33;;;;;;;29.23;21.27;;;;;;;;;;5056201;28;20099;-79
2022/05/07 01:04:00;;;;;;;28.85;20.95;;;;;;;;;;5056403;28;20131;-79
2022/05/07 01:06:30;;;;;;;28.88;21.55;;;;;;;;;;5054823;28;20450;-78
2022/05/07 01:08:57;;;;;;;30.40;22.92;;;;;;;;;;5055720;28;20080;-78
2022/05/07 01:11:27;;;;;;;27.70;20.83;;;;;;;;;;5056341;28;20450;-77
2022/05/07 01:13:54;;;;;;;30.80;21.40;;;;;;;;;;5053345;28;20132;-77
2022/05/07 01:16:21;;;;;;;31.08;21.27;;;;;;;;;;5053759;28;20086;-77
2022/05/07 01:18:48;;;;;;;30.75;21.98;;;;;;;;;;5053592;28;20114;-76
2022/05/07 01:21:17;;;;;;;30.17;21.65;;;;;;;;;;5052559;28;20051;-77
2022/05/07 01:23:45;;;;;;;28.77;20.98;;;;;;;;;;5052768;28;20502;-78
2022/05/07 01:26:12;;;;;;;28.25;21.00;;;;;;;;;;5052194;28;20592;-75
2022/05/07 01:28:40;;;;;;;29.83;21.15;;;;;;;;;;5052546;28;20051;-76
2022/05/07 01:31:07;;;;;;;30.42;20.83;;;;;;;;;;5052437;28;20140;-77
2022/05/07 01:33:35;;;;;;;32.50;21.92;;;;;;;;;;5052597;28;20049;-76
2022/05/07 01:36:02;;;;;;;29.77;21.02;;;;;;;;;;5051908;28;20500;-77
2022/05/07 01:38:31;;;;;;;31.73;22.42;;;;;;;;;;5054939;28;20053;-78
2022/05/07 01:40:59;;;;;;;30.55;21.20;;;;;;;;;;5054937;28;20446;-77
2022/05/07 01:43:27;;;;;;;30.08;21.98;;;;;;;;;;5053284;28;20076;-77
2022/05/07 01:45:55;;;;;;;31.65;21.77;;;;;;;;;;5055971;28;20136;-78
2022/05/07 01:48:21;;;;;;;31.50;22.00;;;;;;;;;;5072817;28;20051;-77
2022/05/07 01:50:48;;;;;;;30.92;21.88;;;;;;;;;;5072802;28;20474;-77
2022/05/07 01:53:15;;;;;;;30.20;21.73;;;;;;;;;;5072791;28;20098;-78
2022/05/07 01:55:45;;;;;;;29.30;20.90;;;;;;;;;;5072670;28;20079;-78
2022/05/07 01:58:12;;;;;;;31.95;22.85;;;;;;;;;;5073405;28;20135;-78
2022/05/07 02:00:41;;;;;;;31.48;22.25;;;;;;;;;;5072078;28;20513;-78
2022/05/07 02:03:08;;;;;;;31.50;22.42;;;;;;;;;;5071832;28;20582;-78
2022/05/07 02:05:36;;;;;;;32.10;21.33;;;;;;;;;;5071959;28;20101;-78
2022/05/07 02:08:03;;;;;;;32.90;22.70;;;;;;;;;;5071805;28;20094;-78
2022/05/07 02:10:30;;;;;;;31.38;22.08;;;;;;;;;;5072240;28;20097;-78
2022/05/07 02:13:01;;;;;;;29.90;21.23;;;;;;;;;;5072448;28;20132;-78
2022/05/07 02:15:28;;;;;;;30.98;22.35;;;;;;;;;;5072578;28;20135;-78
2022/05/07 02:17:56;;;;;;;33.40;22.35;;;;;;;;;;5072929;28;20052;-78
2022/05/07 02:20:22;;;;;;;30.50;22.17;;;;;;;;;;5072510;28;20132;-77
2022/05/07 02:22:53;;;;;;;30.85;22.25;;;;;;;;;;5072849;28;20118;-77
2022/05/07 02:25:20;;;;;;;;;;;;;;;;;;5072430;28;20045;-77
2022/05/07 02:27:46;;;;;;;30.52;21.48;;;;;;;;;;5072781;28;20378;-78
2022/05/07 02:30:15;;;;;;;31.05;21.55;;;;;;;;;;5072853;28;20052;-78
2022/05/07 02:32:42;;;;;;;32.08;21.90;;;;;;;;;;5072040;28;20060;-78
2022/05/07 02:35:09;;;;;;;32.60;23.58;;;;;;;;;;5072077;28;20131;-78
2022/05/07 02:37:36;;;;;;;32.80;23.35;;;;;;;;;;5072247;28;20048;-77
2022/05/07 02:40:03;;;;;;;33.45;22.80;;;;;;;;;;5071714;28;20413;-77
2022/05/07 02:42:36;;;;;;;29.58;22.02;;;;;;;;;;5072126;28;20048;-78
2022/05/07 02:45:06;;;;;;;33.58;23.00;;;;;;;;;;5073965;28;20307;-77
2022/05/07 02:47:34;;;;;;;34.47;23.30;;;;;;;;;;5082022;28;20049;-77
2022/05/07 02:50:01;;;;;;;33.97;23.48;;;;;;;;;;5089772;28;20049;-77
2022/05/07 02:52:28;;;;;;;34.80;23.58;;;;;;;;;;5089429;28;20071;-77
2022/05/07 02:54:55;;;;;;;32.92;24.00;;;;;;;;;;5078271;28;20106;-77
2022/05/07 02:57:22;;;;;;;34.05;23.90;;;;;;;;;;5072769;28;20045;-78
2022/05/07 02:59:49;;;;;;;31.70;23.65;;;;;;;;;;5073076;28;20720;-78
2022/05/07 03:02:15;;;;;;;33.90;23.60;;;;;;;;;;5072032;28;20106;-78
2022/05/07 03:04:44;;;;;;;34.92;24.50;;;;;;;;;;5071786;28;20490;-78
2022/05/07 03:07:10;;;;;;;36.17;24.60;;;;;;;;;;5072216;28;20102;-77
2022/05/07 03:09:37;;;;;;;36.05;25.02;;;;;;;;;;5071995;28;20101;-77
2022/05/07 03:12:05;;;;;;;36.55;25.88;;;;;;;;;;5072316;28;20113;-78
2022/05/07 03:14:32;;;;;;;36.30;25.20;;;;;;;;;;5076208;28;20078;-78
2022/05/07 03:16:59;;;;;;;36.05;25.75;;;;;;;;;;5077577;28;20084;-77
2022/05/07 03:19:25;;;;;;;37.95;25.38;;;;;;;;;;5076250;28;20399;-77
2022/05/07 03:21:53;;;;;;;40.67;25.45;;;;;;;;;;5075188;28;20453;-78
2022/05/07 03:24:20;;;;;;;36.25;24.08;;;;;;;;;;5075440;28;20076;-78
2022/05/07 03:26:47;;;;;;;38.60;25.80;;;;;;;;;;5074669;28;20460;-78
2022/05/07 03:29:14;;;;;;;39.08;24.92;;;;;;;;;;5075203;28;20528;-77
2022/05/07 03:31:40;;;;;;;37.90;25.77;;;;;;;;;;5071084;28;20407;-78
2022/05/07 03:34:08;;;;;;;36.55;24.60;;;;;;;;;;5064009;28;20434;-77
2022/05/07 03:36:35;;;;;;;39.38;26.52;;;;;;;;;;5072259;28;20471;-78
2022/05/07 03:39:03;;;;;;;39.78;25.65;;;;;;;;;;5075336;28;20056;-77
2022/05/07 03:41:30;;;;;;;37.25;26.27;;;;;;;;;;5074811;28;20052;-77
2022/05/07 03:43:57;;;;;;;40.05;25.02;;;;;;;;;;5074792;28;20045;-77
2022/05/07 03:46:25;;;;;;;39.50;25.15;;;;;;;;;;5074913;28;20052;-76
2022/05/07 03:48:52;;;;;;;38.88;24.85;;;;;;;;;;5079465;28;20572;-76
2022/05/07 03:51:19;;;;;;;39.90;25.38;;;;;;;;;;5087056;28;20044;-76
2022/05/07 03:53:45;;;;;;;36.63;24.52;;;;;;;;;;5089826;28;20040;-77
2022/05/07 03:56:14;;;;;;;36.70;25.25;;;;;;;;;;5078803;28;20060;-77
2022/05/07 03:58:41;;;;;;;39.50;25.23;;;;;;;;;;5074402;28;20044;-78
2022/05/07 04:01:09;;;;;;;37.90;24.63;;;;;;;;;;5073802;28;20079;-77
2022/05/07 04:03:38;;;;;;;38.17;26.17;;;;;;;;;;5073791;28;20044;-77
2022/05/07 04:06:05;;;;;;;37.03;25.27;;;;;;;;;;5074327;28;20139;-77
2022/05/07 04:08:32;;;;;;;35.97;23.92;;;;;;;;;;5074282;28;20059;-78
2022/05/07 04:10:59;;;;;;;37.78;24.48;;;;;;;;;;5074603;28;20097;-77
2022/05/07 04:13:27;;;;;;;35.90;24.13;;;;;;;;;;5075138;28;20048;-77
2022/05/07 04:15:54;;;;;;;35.22;23.13;;;;;;;;;;5073760;28;20279;-78
2022/05/07 04:18:21;;;;;;;32.95;22.73;;;;;;;;;;5074226;28;20138;-77
2022/05/07 04:20:48;;;;;;;33.70;23.00;;;;;;;;;;5074186;28;20056;-77
2022/05/07 04:23:14;;;;;;;35.75;24.70;;;;;;;;;;5074071;28;20181;-77
2022/05/07 04:25:42;;;;;;;35.47;23.05;;;;;;;;;;5073526;28;20041;-77
2022/05/07 04:28:08;;;;;;;35.85;23.15;;;;;;;;;;5074563;28;20048;-78
2022/05/07 04:30:37;;;;;;;35.63;23.90;;;;;;;;;;5075169;28;20453;-77
2022/05/07 04:33:04;;;;;;;37.17;25.50;;;;;;;;;;5074827;28;20502;-78
2022/05/07 04:35:31;;;;;;;37.47;24.50;;;;;;;;;;5075847;28;20126;-78
2022/05/07 04:37:57;;;;;;;39.03;26.67;;;;;;;;;;5074469;28;20048;-78
2022/05/07 04:40:24;;;;;;;39.95;25.55;;;;;;;;;;5074616;28;20048;-78
2022/05/07 04:42:52;;;;;;;38.53;24.40;;;;;;;;;;5075147;28;20053;-78
2022/05/07 04:45:18;;;;;;;39.70;24.30;;;;;;;;;;5075471;28;20048;-78
2022/05/07 04:47:46;;;;;;;37.35;24.40;;;;;;;;;;5055598;28;20045;-78
2022/05/07 04:50:13;;;;;;;37.92;25.77;;;;;;;;;;5054118;28;20699;-77
2022/05/07 04:52:40;;;;;;;38.08;24.48;;;;;;;;;;5053819;28;20045;-78
2022/05/07 04:55:08;;;;;;;41.05;26.95;;;;;;;;;;5053134;28;20553;-77
2022/05/07 04:57:35;;;;;;;38.92;24.95;;;;;;;;;;5053964;28;20110;-78
2022/05/07 05:00:03;;;;;;;38.55;24.65;;;;;;;;;;5057352;28;20048;-78
2022/05/07 05:02:30;;;;;;;37.20;25.02;;;;;;;;;;5061375;28;20041;-79
2022/05/07 05:04:58;;;;;;;40.45;25.98;;;;;;;;;;5070847;28;20049;-78
2022/05/07 05:07:24;;;;;;;41.30;24.23;;;;;;;;;;5070146;28;20102;-78
2022/05/07 05:09:51;;;;;;;35.05;24.08;;;;;;;;;;5067885;28;20045;-79
2022/05/07 05:12:18;;;;;;;40.17;25.83;;;;;;;;;;5067215;28;20037;-78
2022/05/07 05:15:05;;;;;;;39.65;26.20;;;;;;;;;;5071857;28;20048;-78
2022/05/07 05:17:32;;;;;;;37.72;23.85;;;;;;;;;;5068089;28;20390;-77
2022/05/07 05:20:01;;;;;;;38.30;25.75;;;;;;;;;;5067478;28;20085;-77
2022/05/07 05:22:30;;;;;;;39.90;26.52;;;;;;;;;;5064364;28;20037;-78
2022/05/07 05:24:57;;;;;;;35.60;24.65;;;;;;;;;;5060877;28;20047;-78
2022/05/07 05:27:24;;;;;;;34.45;23.17;;;;;;;;;;5063168;28;20137;-77
2022/05/07 05:29:51;;;;;;;38.35;23.95;;;;;;;;;;5065786;28;20074;-78
2022/05/07 05:32:21;;;;;;;35.55;24.17;;;;;;;;;;5081256;28;20035;-78
2022/05/07 05:34:49;;;;;;;37.33;24.00;;;;;;;;;;5074691;28;20045;-78
2022/05/07 05:37:17;;;;;;;33.28;23.27;;;;;;;;;;5078249;28;20340;-77
2022/05/07 05:39:45;;;;;;;34.67;23.33;;;;;;;;;;5070197;28;20055;-77
2022/05/07 05:42:11;;;;;;;35.65;24.65;;;;;;;;;;5061079;28;20082;-77
2022/05/07 05:44:39;;;;;;;31.13;21.33;;;;;;;;;;5060255;28;20094;-78
2022/05/07 05:47:06;;;;;;;32.10;22.60;;;;;;;;;;5061111;28;20131;-79
2022/05/07 05:49:34;;;;;;;34.90;22.45;;;;;;;;;;5060008;28;20053;-78
2022/05/07 05:52:01;;;;;;;32.42;21.90;;;;;;;;;;5060878;28;20060;-78
2022/05/07 05:54:30;;;;;;;30.98;21.65;;;;;;;;;;5061004;28;20044;-78
2022/05/07 05:56:57;;;;;;;30.33;21.13;;;;;;;;;;5062685;28;20041;-78
2022/05/07 05:59:24;;;;;;;30.85;21.45;;;;;;;;;;5061339;28;20470;-78
2022/05/07 06:01:51;;;;;;;30.65;20.98;;;;;;;;;;5061090;28;20090;-77
2022/05/07 06:04:18;;;;;;;30.05;20.42;;;;;;;;;;5069180;28;20453;-78
2022/05/07 06:06:45;;;;;;;26.75;18.92;;;;;;;;;;5071737;28;20044;-78
2022/05/07 06:09:12;;;;;;;28.88;20.73;;;;;;;;;;5071192;28;20479;-77
2022/05/07 06:11:40;;;;;;;26.33;19.17;;;;;;;;;;5061042;28;20053;-80
2022/05/07 06:14:07;;;;;;;28.35;20.08;;;;;;;;;;5061394;28;20048;-79
2022/05/07 06:16:34;;;;;;;28.38;20.80;;;;;;;;;;5067197;28;20510;-79
2022/05/07 06:19:03;;;;;;;24.98;18.63;;;;;;;;;;5066105;28;20450;-79
2022/05/07 06:21:29;;;;;;;24.75;18.05;;;;;;;;;;5065130;28;20041;-79
2022/05/07 06:27:28;;;;;;;23.55;17.60;;;;;;;;;;5062260;28;20052;-79
2022/05/07 06:29:29;;;;;;;25.67;18.05;;;;;;;;;;5064573;28;20044;-78
2022/05/07 06:31:56;;;;;;;25.95;19.10;;;;;;;;;;5064422;28;20514;-79
2022/05/07 06:34:24;;;;;;;24.35;19.08;;;;;;;;;;5065398;28;20048;-79
2022/05/07 06:36:54;;;;;;;32.40;22.08;;;;;;;;;;5065290;28;20065;-79
2022/05/07 06:39:21;;;;;;;31.65;23.02;;;;;;;;;;5062364;28;20045;-79
2022/05/07 06:41:51;;;;;;;32.67;23.83;;;;;;;;;;5075756;28;20105;-77
2022/05/07 06:44:18;;;;;;;31.07;22.57;;;;;;;;;;5063504;28;20040;-77
2022/05/07 06:46:45;;;;;;;24.85;18.40;;;;;;;;;;5061701;28;20300;-77
2022/05/07 06:49:14;;;;;;;27.88;20.90;;;;;;;;;;5056635;28;20053;-76
2022/05/07 06:51:41;;;;;;;28.80;22.38;;;;;;;;;;5059107;28;20095;-78
2022/05/07 06:54:08;;;;;;;26.17;19.58;;;;;;;;;;5062390;28;20049;-79
2022/05/07 06:56:34;;;;;;;24.50;18.23;;;;;;;;;;5066263;28;20064;-83
2022/05/07 06:59:03;;;;;;;26.48;20.13;;;;;;;;;;5065716;28;20045;-84
2022/05/07 07:01:30;;;;;;;24.48;18.25;;;;;;;;;;5078294;28;20052;-82
2022/05/07 07:03:57;;;;;;;22.90;16.73;;;;;;;;;;5088079;28;20056;-81
2022/05/07 07:06:23;;;;;;;23.08;16.40;;;;;;;;;;5085681;28;20052;-84
2022/05/07 07:08:52;;;;;;;22.20;16.88;;;;;;;;;;5081884;28;20051;-82
2022/05/07 07:11:20;;;;;;;21.05;16.05;;;;;;;;;;5081832;28;20556;-82
2022/05/07 07:13:47;;;;;;;20.92;15.27;;;;;;;;;;5074224;28;20053;-82
2022/05/07 07:16:16;;;;;;;22.55;16.23;;;;;;;;;;5060002;28;20163;-83
2022/05/07 07:18:42;;;;;;;27.33;18.40;;;;;;;;;;5058717;28;20060;-80
2022/05/07 07:21:09;;;;;;;23.30;17.27;;;;;;;;;;5069285;28;20132;-80
2022/05/07 07:23:36;;;;;;;22.67;16.63;;;;;;;;;;5068144;28;20111;-80
2022/05/07 07:26:04;;;;;;;23.98;15.73;;;;;;;;;;5076363;28;20433;-81
2022/05/07 07:28:31;;;;;;;21.95;16.23;;;;;;;;;;5076223;28;20041;-85
2022/05/07 07:30:59;;;;;;;23.10;17.20;;;;;;;;;;5075948;28;20124;-85
2022/05/07 07:33:27;;;;;;;21.52;16.17;;;;;;;;;;5079512;28;20131;-81
2022/05/07 07:35:53;;;;;;;19.10;14.90;;;;;;;;;;5070710;28;20068;-81
2022/05/07 07:38:21;;;;;;;20.70;15.52;;;;;;;;;;5059704;28;20049;-80
2022/05/07 07:40:50;;;;;;;21.55;17.23;;;;;;;;;;5060726;28;20045;-81
2022/05/07 07:43:17;;;;;;;21.85;16.00;;;;;;;;;;5079797;28;20039;-80
2022/05/07 07:48:30;;;;;;;19.08;14.80;;;;;;;;;;5075550;28;20051;-79
2022/05/07 07:50:58;;;;;;;20.23;14.85;;;;;;;;;;5064565;28;20132;-79
2022/05/07 07:53:25;;;;;;;20.33;15.68;;;;;;;;;;5064717;28;20052;-80
2022/05/07 07:55:52;;;;;;;22.50;15.60;;;;;;;;;;5060423;28;20065;-80
2022/05/07 07:58:19;;;;;;;19.92;15.30;;;;;;;;;;5059096;28;20499;-82
2022/05/07 08:00:46;;;;;;;21.67;15.80;;;;;;;;;;5060084;28;20106;-81
2022/05/07 08:03:14;;;;;;;20.00;15.43;;;;;;;;;;5060292;28;20049;-80
2022/05/07 08:05:44;;;;;;;20.55;15.50;;;;;;;;;;5059569;28;20045;-82
2022/05/07 08:13:42;;;;;;;21.25;16.90;;;;;;;;;;5059169;28;20094;-80
2022/05/07 08:16:09;;;;;;;22.38;16.10;;;;;;;;;;5059013;28;20052;-81
2022/05/07 08:18:37;;;;;;;20.45;15.70;;;;;;;;;;5059284;28;20053;-80
2022/05/07 08:21:07;;;;;;;20.10;15.45;;;;;;;;;;5058841;28;20455;-80
2022/05/07 08:23:34;;;;;;;;;;;;;;;;;;5059168;28;20492;-80
2022/05/07 08:26:02;;;;;;;26.55;18.52;;;;;;;;;;5057912;28;19990;-81
2022/05/07 08:28:29;;;;;;;25.85;17.63;;;;;;;;;;5057280;28;20057;-80
2022/05/07 08:30:56;;;;;;;26.02;18.20;;;;;;;;;;5057708;28;20091;-81
2022/05/07 08:33:23;;;;;;;25.92;18.77;;;;;;;;;;5058841;28;20072;-80
2022/05/07 08:35:50;;;;;;;57.00;33.47;;;;;;;;;;5057197;28;20095;-81
2022/05/07 08:38:19;;;;;;;26.13;19.65;;;;;;;;;;5058590;28;20053;-81
2022/05/07 08:40:46;;;;;;;25.08;18.25;;;;;;;;;;5059978;28;20085;-81
2022/05/07 08:43:14;;;;;;;23.35;17.27;;;;;;;;;;5068584;28;20033;-79
2022/05/07 08:45:42;;;;;;;21.70;15.73;;;;;;;;;;5079954;28;20045;-80
2022/05/07 08:48:09;;;;;;;20.60;15.18;;;;;;;;;;5093183;28;20102;-81
2022/05/07 08:50:36;;;;;;;20.98;16.33;;;;;;;;;;5079649;28;20048;-82
2022/05/07 08:53:03;;;;;;;19.90;15.02;;;;;;;;;;5078888;28;20041;-81
2022/05/07 08:55:32;;;;;;;21.08;15.80;;;;;;;;;;5078128;28;20048;-80
2022/05/07 08:57:59;;;;;;;22.17;16.55;;;;;;;;;;5079434;28;21098;-81
2022/05/07 09:00:27;;;;;;;23.05;16.95;;;;;;;;;;5079743;28;20056;-81
2022/05/07 09:02:56;;;;;;;20.83;15.88;;;;;;;;;;5079465;28;20109;-80
2022/05/07 09:05:33;;;;;;;22.77;16.80;;;;;;;;;;5075707;28;20133;-79
2022/05/07 09:08:01;;;;;;;18.60;13.73;;;;;;;;;;5074266;28;20387;-80
2022/05/07 09:10:28;;;;;;;21.60;15.60;;;;;;;;;;5074029;28;20478;-78
2022/05/07 09:13:00;;;;;;;21.50;15.27;;;;;;;;;;5073168;28;20048;-77
2022/05/07 09:15:27;;;;;;;42.45;29.83;;;;;;;;;;5072708;28;20573;-79
2022/05/07 09:17:54;;;;;;;27.15;19.85;;;;;;;;;;5072767;28;20494;-78
2022/05/07 09:20:32;;;;;;;23.02;17.67;;;;;;;;;;5072978;28;20499;-79
2022/05/07 09:22:59;;;;;;;21.05;16.35;;;;;;;;;;5073143;28;20056;-78
2022/05/07 09:25:27;;;;;;;28.42;22.25;;;;;;;;;;5072914;28;20101;-78
2022/05/07 09:27:57;;;;;;;24.38;17.88;;;;;;;;;;5072948;28;20090;-78
2022/05/07 09:30:25;;;;;;;17.97;13.90;;;;;;;;;;5076843;28;20048;-80
2022/05/07 09:32:54;;;;;;;18.63;14.13;;;;;;;;;;5078297;28;20098;-81
2022/05/07 09:38:09;;;;;;;17.60;13.07;;;;;;;;;;5077814;28;20568;-80
2022/05/07 09:40:39;;;;;;;18.27;13.90;;;;;;;;;;5078495;28;20108;-80
2022/05/07 09:43:09;;;;;;;17.27;14.23;;;;;;;;;;5077653;28;20086;-81
2022/05/07 09:45:38;;;;;;;17.60;14.13;;;;;;;;;;5075468;28;20051;-79
2022/05/07 09:48:06;;;;;;;19.08;14.45;;;;;;;;;;5055295;28;20480;-78
2022/05/07 09:50:45;;;;;;;17.85;13.90;;;;;;;;;;5055927;28;20132;-79
2022/05/07 09:58:44;;;;;;;18.50;13.68;;;;;;;;;;5055456;28;20520;-79
2022/05/07 10:01:29;;;;;;;19.40;14.50;;;;;;;;;;5057684;28;20045;-79
2022/05/07 10:04:07;;;;;;;29.45;22.45;;;;;;;;;;5055584;28;20045;-78
2022/05/07 10:06:46;;;;;;;20.70;14.80;;;;;;;;;;5055699;28;20076;-79
2022/05/07 10:09:26;;;;;;;20.30;15.20;;;;;;;;;;5059333;28;20136;-79
2022/05/07 10:11:55;;;;;;;19.92;15.23;;;;;;;;;;5063609;28;20106;-80
2022/05/07 10:14:27;;;;;;;20.40;15.65;;;;;;;;;;5064996;28;20411;-78
2022/05/07 10:16:59;;;;;;;21.02;15.52;;;;;;;;;;5056546;28;20134;-79
2022/05/07 10:19:38;;;;;;;22.17;15.70;;;;;;;;;;5054817;28;20073;-79
2022/05/07 10:22:17;;;;;;;20.52;15.05;;;;;;;;;;5058632;28;20136;-80
2022/05/07 10:24:44;;;;;;;18.75;15.00;;;;;;;;;;5061114;28;20088;-82
2022/05/07 10:27:24;;;;;;;19.50;15.10;;;;;;;;;;5060544;28;20048;-81
2022/05/07 10:29:52;;;;;;;20.00;14.63;;;;;;;;;;5060083;28;20080;-81
2022/05/07 10:32:21;;;;;;;21.63;15.90;;;;;;;;;;5059735;28;20061;-78
2022/05/07 10:34:52;;;;;;;19.75;15.10;;;;;;;;;;5058967;28;20045;-79
2022/05/07 10:37:19;;;;;;;21.10;16.50;;;;;;;;;;5066795;28;20076;-80
2022/05/07 10:39:53;;;;;;;19.05;14.25;;;;;;;;;;5068067;28;20059;-80
2022/05/07 10:42:21;;;;;;;18.77;14.38;;;;;;;;;;5069705;28;20110;-80
2022/05/07 10:44:52;;;;;;;18.63;14.43;;;;;;;;;;5060139;28;20139;-78
2022/05/07 10:47:20;;;;;;;17.05;12.82;;;;;;;;;;5073396;28;20049;-78
2022/05/07 10:49:55;;;;;;;15.75;12.57;;;;;;;;;;5078304;28;20076;-79
2022/05/07 10:52:30;;;;;;;17.15;12.82;;;;;;;;;;5080206;28;20091;-79
2022/05/07 10:55:07;;;;;;;16.83;12.60;;;;;;;;;;5079651;28;20135;-79
2022/05/07 10:57:42;;;;;;;17.60;12.70;;;;;;;;;;5078829;28;20051;-79
2022/05/07 11:00:14;;;;;;;13.95;10.65;;;;;;;;;;5079159;28;20396;-79
2022/05/07 11:02:45;;;;;;;13.82;10.98;;;;;;;;;;5079394;28;20159;-79
2022/05/07 11:05:12;;;;;;;13.32;10.10;;;;;;;;;;5078966;28;20568;-80
2022/05/07 11:07:39;;;;;;;11.70;8.75;;;;;;;;;;5079698;28;20107;-78
2022/05/07 11:10:08;;;;;;;11.25;8.43;;;;;;;;;;5078538;28;20414;-78
2022/05/07 11:12:36;;;;;;;10.18;7.63;;;;;;;;;;5079312;28;20131;-78
2022/05/07 11:15:04;;;;;;;10.48;6.93;;;;;;;;;;5077538;28;20127;-78
2022/05/07 11:17:34;;;;;;;9.52;7.55;;;;;;;;;;5078182;28;20044;-78
2022/05/07 11:20:03;;;;;;;10.63;7.93;;;;;;;;;;5077792;28;20098;-78
2022/05/07 11:22:31;;;;;;;10.95;8.40;;;;;;;;;;5079601;28;20098;-79
2022/05/07 11:24:59;;;;;;;10.55;8.80;;;;;;;;;;5077764;28;20044;-78
2022/05/07 11:27:30;;;;;;;11.95;8.70;;;;;;;;;;5080295;28;20048;-78
2022/05/07 11:29:58;;;;;;;12.65;9.13;;;;;;;;;;5079113;28;20108;-78
2022/05/07 11:32:24;;;;;;;13.35;10.35;;;;;;;;;;5077717;28;20049;-80
2022/05/07 11:34:56;;;;;;;20.35;17.08;;;;;;;;;;5079009;28;20066;-81
2022/05/07 11:37:24;;;;;;;13.55;9.90;;;;;;;;;;5079299;28;20131;-81
2022/05/07 11:39:53;;;;;;;14.95;11.63;;;;;;;;;;5097494;22;20050;-67
2022/05/07 11:42:31;;;;;;;13.50;10.55;;;;;;;;;;5034747;28;20056;-66
2022/05/07 11:47:59;;;;;;;11.97;8.97;;;;;;;;;;4973612;28;20047;-67
2022/05/07 11:50:29;;;;;;;11.65;9.38;;;;;;;;;;4973376;28;20149;-66
2022/05/07 11:53:09;;;;;;;11.15;8.55;;;;;;;;;;4983302;28;20050;-68
2022/05/07 11:55:36;;;;;;;11.55;8.73;;;;;;;;;;4994804;28;20130;-67
2022/05/07 11:58:13;;;;;;;10.88;8.60;;;;;;;;;;4994696;28;20047;-67
2022/05/07 12:00:41;;;;;;;10.13;7.60;;;;;;;;;;4994841;28;20137;-66
2022/05/07 12:03:08;;;;;;;12.43;8.77;;;;;;;;;;4994766;28;20125;-66
2022/05/07 12:05:40;;;;;;;9.77;7.47;;;;;;;;;;4994621;28;20042;-67
2022/05/07 12:08:15;;;;;;;8.70;6.95;;;;;;;;;;4994763;28;20054;-65
2022/05/07 12:10:42;;;;;;;9.52;7.22;;;;;;;;;;4994759;28;20046;-66
2022/05/07 12:13:10;;;;;;;8.98;6.60;;;;;;;;;;4994447;28;20046;-66
2022/05/07 12:18:22;;;;;;;8.57;6.07;;;;;;;;;;4994585;28;20101;-67
2022/05/07 12:20:49;;;;;;;7.90;6.55;;;;;;;;;;4994538;28;20046;-67
2022/05/07 12:31:31;;;;;;;9.40;7.07;;;;;;;;;;4994583;28;20097;-67
2022/05/07 12:33:58;;;;;;;8.43;6.70;;;;;;;;;;4994192;28;20049;-67
2022/05/07 12:36:26;;;;;;;8.10;6.13;;;;;;;;;;4993745;28;20050;-66
2022/05/07 12:38:59;;;;;;;7.88;6.60;;;;;;;;;;4994283;28;20050;-65
2022/05/07 12:41:26;;;;;;;8.40;6.32;;;;;;;;;;4994221;28;20519;-66
2022/05/07 12:43:53;;;;;;;8.20;5.97;;;;;;;;;;4994320;28;20057;-66
2022/05/07 12:46:21;;;;;;;7.82;5.80;;;;;;;;;;5007685;28;20103;-69
2022/05/07 12:48:48;;;;;;;7.63;6.35;;;;;;;;;;5033882;28;20049;-67
2022/05/07 12:51:15;;;;;;;8.05;6.65;;;;;;;;;;5033492;28;20057;-66
2022/05/07 12:53:42;;;;;;;9.55;6.82;;;;;;;;;;5033461;28;20486;-66
2022/05/07 12:56:11;;;;;;;8.32;6.72;;;;;;;;;;5032985;28;20048;-67
2022/05/07 12:58:38;;;;;;;8.35;7.03;;;;;;;;;;5033168;28;20050;-67
2022/05/07 13:01:05;;;;;;;9.40;7.25;;;;;;;;;;5033104;28;20133;-67
2022/05/07 13:03:32;;;;;;;9.95;7.72;;;;;;;;;;5033008;28;20498;-66
2022/05/07 13:05:59;;;;;;;9.25;7.80;;;;;;;;;;5032585;28;20534;-67
2022/05/07 13:08:26;;;;;;;10.52;8.13;;;;;;;;;;5032963;28;20115;-67
2022/05/07 13:10:53;;;;;;;9.27;7.47;;;;;;;;;;5032892;28;20045;-67
2022/05/07 13:13:23;;;;;;;13.27;8.90;;;;;;;;;;5032945;28;20046;-66
2022/05/07 13:15:50;;;;;;;10.88;8.30;;;;;;;;;;5032558;28;20056;-66
2022/05/07 13:18:17;;;;;;;14.77;13.07;;;;;;;;;;5032813;28;20447;-67
2022/05/07 13:20:44;;;;;;;11.00;8.52;;;;;;;;;;5032596;28;20050;-67
2022/05/07 13:23:12;;;;;;;10.07;8.93;;;;;;;;;;5032743;28;20525;-67
2022/05/07 13:25:39;;;;;;;11.30;9.40;;;;;;;;;;5032491;28;20399;-67
2022/05/07 13:28:07;;;;;;;10.40;9.10;;;;;;;;;;5032584;28;20129;-66
2022/05/07 13:30:35;;;;;;;10.73;8.68;;;;;;;;;;5032389;28;20057;-68
2022/05/07 13:33:02;;;;;;;11.60;8.90;;;;;;;;;;5032839;28;20042;-67
2022/05/07 13:35:30;;;;;;;10.48;8.75;;;;;;;;;;5032131;28;20061;-67
2022/05/07 13:37:57;;;;;;;10.80;9.15;;;;;;;;;;5032717;28;20492;-67
2022/05/07 13:40:24;;;;;;;11.00;8.90;;;;;;;;;;5032211;28;20144;-66
2022/05/07 13:42:53;;;;;;;11.40;9.65;;;;;;;;;;5032576;28;20055;-67
2022/05/07 13:45:20;;;;;;;10.55;8.93;;;;;;;;;;5032469;28;20481;-67
2022/05/07 13:47:48;;;;;;;11.45;9.20;;;;;;;;;;5014007;28;20473;-66
2022/05/07 13:50:15;;;;;;;10.13;8.38;;;;;;;;;;5012458;28;20050;-66
2022/05/07 13:52:43;;;;;;;10.55;9.35;;;;;;;;;;5012785;28;20551;-66
2022/05/07 13:55:12;;;;;;;12.70;10.50;;;;;;;;;;5012311;28;20049;-66
2022/05/07 13:57:39;;;;;;;12.32;10.30;;;;;;;;;;5012337;28;20053;-67
2022/05/07 14:00:08;;;;;;;11.90;9.73;;;;;;;;;;5012693;28;20048;-66
2022/05/07 14:02:36;;;;;;;11.63;8.93;;;;;;;;;;5012622;28;20050;-66
2022/05/07 14:05:05;;;;;;;9.75;8.30;;;;;;;;;;5012319;28;20576;-66
2022/05/07 14:07:33;;;;;;;10.00;8.35;;;;;;;;;;5012427;28;20042;-66
2022/05/07 14:10:00;;;;;;;9.98;8.38;;;;;;;;;;5012983;28;20056;-67
2022/05/07 14:12:27;;;;;;;10.02;8.27;;;;;;;;;;5013195;28;20069;-67
2022/05/07 14:14:54;;;;;;;11.27;8.38;;;;;;;;;;5013149;28;20138;-66
2022/05/07 14:17:22;;;;;;;10.20;7.70;;;;;;;;;;5013900;28;20136;-66
2022/05/07 14:19:52;;;;;;;11.90;8.15;;;;;;;;;;5012670;28;20652;-65
2022/05/07 14:22:21;;;;;;;9.68;7.80;;;;;;;;;;5012668;28;20056;-66
2022/05/07 14:24:48;;;;;;;9.80;8.23;;;;;;;;;;5012833;28;20080;-67
2022/05/07 14:27:15;;;;;;;9.57;8.52;;;;;;;;;;5012756;28;20115;-67
2022/05/07 14:29:42;;;;;;;11.60;8.50;;;;;;;;;;5012531;28;20086;-65
2022/05/07 14:32:10;;;;;;;9.27;7.97;;;;;;;;;;5012823;28;20050;-66
2022/05/07 14:34:37;;;;;;;9.57;7.95;;;;;;;;;;5012542;28;20479;-65
2022/05/07 14:37:05;;;;;;;11.57;10.02;;;;;;;;;;5012377;28;20077;-66
2022/05/07 14:39:35;;;;;;;12.38;9.82;;;;;;;;;;5012652;28;20560;-65
2022/05/07 14:42:02;;;;;;;12.27;10.43;;;;;;;;;;5012242;28;20042;-66
2022/05/07 14:44:29;;;;;;;12.07;9.45;;;;;;;;;;5012901;28;20070;-65
2022/05/07 14:46:59;;;;;;;10.05;8.57;;;;;;;;;;5025236;28;20486;-66
2022/05/07 14:49:26;;;;;;;;;;;;;;;;;;5032580;28;20049;-65
2022/05/07 14:51:53;;;;;;;8.93;6.88;;;;;;;;;;5032191;28;19932;-66
2022/05/07 14:54:20;;;;;;;9.75;7.53;;;;;;;;;;5032518;28;20104;-66
2022/05/07 14:56:48;;;;;;;10.45;8.23;;;;;;;;;;5032199;28;20144;-66
2022/05/07 14:59:15;;;;;;;9.82;8.48;;;;;;;;;;5033214;28;20478;-66
2022/05/07 15:01:43;;;;;;;10.15;8.35;;;;;;;;;;5032637;28;20391;-66
2022/05/07 15:04:10;;;;;;;11.32;8.60;;;;;;;;;;5032662;28;20049;-65